createdAt,value
2023-02-26T00:00:26.000Z,65.51
2023-02-26T00:01:29.000Z,65.31
2023-02-26T00:02:26.000Z,65.12
2023-02-26T00:03:27.000Z,65.17
2023-02-26T00:04:26.000Z,65.20
2023-02-26T00:05:26.000Z,65.09
2023-02-26T00:06:27.000Z,65.19
2023-02-26T00:07:27.000Z,65.34
2023-02-26T00:08:26.000Z,65.17
2023-02-26T00:09:26.000Z,65.10
2023-02-26T00:10:26.000Z,64.94
2023-02-26T00:11:26.000Z,65.16
2023-02-26T00:12:27.000Z,65.06
2023-02-26T00:13:28.000Z,65.05
2023-02-26T00:14:26.000Z,65.10
2023-02-26T00:15:26.000Z,65.04
2023-02-26T00:16:33.000Z,65.03
2023-02-26T00:17:43.000Z,64.96
2023-02-26T00:18:27.000Z,64.84
2023-02-26T00:19:26.000Z,64.84
2023-02-26T00:20:27.000Z,64.90
2023-02-26T00:21:28.000Z,64.94
2023-02-26T00:22:26.000Z,65.02
2023-02-26T00:23:26.000Z,65.10
2023-02-26T00:24:26.000Z,65.16
2023-02-26T00:25:26.000Z,65.02
2023-02-26T00:26:29.000Z,64.92
2023-02-26T00:27:26.000Z,64.87
2023-02-26T00:28:27.000Z,65.06
2023-02-26T00:29:27.000Z,65.22
2023-02-26T00:30:27.000Z,65.32
2023-02-26T00:31:27.000Z,65.20
2023-02-26T00:32:27.000Z,65.65
2023-02-26T00:33:27.000Z,65.61
2023-02-26T00:34:27.000Z,65.58
2023-02-26T00:35:27.000Z,65.23
2023-02-26T00:36:50.000Z,65.68
2023-02-26T00:37:47.000Z,65.58
2023-02-26T00:38:31.000Z,65.90
2023-02-26T00:39:36.000Z,65.97
2023-02-26T00:40:38.000Z,66.26
2023-02-26T00:41:28.000Z,65.77
2023-02-26T00:42:26.000Z,65.98
2023-02-26T00:43:26.000Z,66.00
2023-02-26T00:44:27.000Z,66.02
2023-02-26T00:45:27.000Z,66.05
2023-02-26T00:46:35.000Z,66.46
2023-02-26T00:47:39.000Z,65.94
2023-02-26T00:48:36.000Z,65.74
2023-02-26T00:49:46.000Z,65.89
2023-02-26T00:50:27.000Z,65.76
2023-02-26T00:51:36.000Z,66.02
2023-02-26T00:52:39.000Z,65.83
2023-02-26T00:53:38.000Z,65.86
2023-02-26T00:54:28.000Z,66.10
2023-02-26T00:55:26.000Z,66.00
2023-02-26T00:56:26.000Z,66.12
2023-02-26T00:57:26.000Z,66.28
2023-02-26T00:58:26.000Z,66.19
2023-02-26T00:59:26.000Z,66.29
2023-02-26T01:00:26.000Z,66.13
2023-02-26T01:01:26.000Z,66.03
2023-02-26T01:02:27.000Z,66.14
2023-02-26T01:03:27.000Z,66.13
2023-02-26T01:04:27.000Z,66.25
2023-02-26T01:05:27.000Z,65.99
2023-02-26T01:06:31.000Z,65.94
2023-02-26T01:07:28.000Z,66.03
2023-02-26T01:08:40.000Z,66.23
2023-02-26T01:09:30.000Z,66.20
2023-02-26T01:10:27.000Z,66.11
2023-02-26T01:11:27.000Z,66.08
2023-02-26T01:12:27.000Z,66.16
2023-02-26T01:13:27.000Z,66.37
2023-02-26T01:14:28.000Z,66.42
2023-02-26T01:15:27.000Z,66.42
2023-02-26T01:16:32.000Z,66.23
2023-02-26T01:17:32.000Z,66.36
2023-02-26T01:18:36.000Z,66.84
2023-02-26T01:19:36.000Z,67.10
2023-02-26T01:20:35.000Z,67.44
2023-02-26T01:21:35.000Z,67.66
2023-02-26T01:22:33.000Z,68.14
2023-02-26T01:23:31.000Z,68.47
2023-02-26T01:24:29.000Z,68.82
2023-02-26T01:25:38.000Z,68.79
2023-02-26T01:26:27.000Z,68.52
2023-02-26T01:27:26.000Z,68.56
2023-02-26T01:28:26.000Z,68.48
2023-02-26T01:29:26.000Z,68.87
2023-02-26T01:30:26.000Z,68.64
2023-02-26T01:31:36.000Z,68.82
2023-02-26T01:32:40.000Z,68.79
2023-02-26T01:33:45.000Z,69.06
2023-02-26T01:34:52.000Z,69.23
2023-02-26T01:35:38.000Z,69.46
2023-02-26T01:36:31.000Z,69.61
2023-02-26T01:37:45.000Z,69.65
2023-02-26T01:38:50.000Z,69.74
2023-02-26T01:39:36.000Z,70.12
2023-02-26T01:40:42.000Z,70.23
2023-02-26T01:41:34.000Z,70.37
2023-02-26T01:42:32.000Z,70.41
2023-02-26T01:43:41.000Z,70.48
2023-02-26T01:44:36.000Z,70.47
2023-02-26T01:45:33.000Z,70.50
2023-02-26T01:46:37.000Z,70.51
2023-02-26T01:47:38.000Z,70.60
2023-02-26T01:48:36.000Z,70.56
2023-02-26T01:49:26.000Z,70.38
2023-02-26T01:50:34.000Z,70.56
2023-02-26T01:51:36.000Z,70.39
2023-02-26T01:52:36.000Z,70.46
2023-02-26T01:53:26.000Z,70.54
2023-02-26T01:54:31.000Z,70.40
2023-02-26T01:55:27.000Z,70.27
2023-02-26T01:56:26.000Z,70.37
2023-02-26T01:57:26.000Z,70.44
2023-02-26T01:58:30.000Z,70.59
2023-02-26T01:59:26.000Z,70.34
2023-02-26T02:00:29.000Z,70.31
2023-02-26T02:01:26.000Z,70.46
2023-02-26T02:02:27.000Z,70.24
2023-02-26T02:03:30.000Z,70.19
2023-02-26T02:04:27.000Z,70.12
2023-02-26T02:05:34.000Z,70.26
2023-02-26T02:06:28.000Z,70.28
2023-02-26T02:07:28.000Z,70.38
2023-02-26T02:08:27.000Z,70.43
2023-02-26T02:09:27.000Z,70.10
2023-02-26T02:10:26.000Z,70.25
2023-02-26T02:11:26.000Z,70.17
2023-02-26T02:12:38.000Z,70.11
2023-02-26T02:13:36.000Z,69.99
2023-02-26T02:14:51.000Z,69.86
2023-02-26T02:15:40.000Z,69.70
2023-02-26T02:16:46.000Z,69.51
2023-02-26T02:17:54.000Z,69.19
2023-02-26T02:18:38.000Z,69.16
2023-02-26T02:19:49.000Z,69.45
2023-02-26T02:20:36.000Z,69.28
2023-02-26T02:21:52.000Z,69.05
2023-02-26T02:22:50.000Z,69.11
2023-02-26T02:23:37.000Z,69.41
2023-02-26T02:24:36.000Z,69.26
2023-02-26T02:25:36.000Z,69.10
2023-02-26T02:26:36.000Z,68.99
2023-02-26T02:27:41.000Z,68.93
2023-02-26T02:28:47.000Z,68.90
2023-02-26T02:29:57.000Z,68.85
2023-02-26T02:30:36.000Z,68.89
2023-02-26T02:31:34.000Z,68.89
2023-02-26T02:32:35.000Z,68.74
2023-02-26T02:33:35.000Z,68.64
2023-02-26T02:34:34.000Z,68.90
2023-02-26T02:35:34.000Z,68.83
2023-02-26T02:36:50.000Z,68.94
2023-02-26T02:37:35.000Z,68.84
2023-02-26T02:38:38.000Z,69.21
2023-02-26T02:39:36.000Z,68.99
2023-02-26T02:40:31.000Z,69.13
2023-02-26T02:41:34.000Z,69.19
2023-02-26T02:42:43.000Z,69.03
2023-02-26T02:43:30.000Z,69.53
2023-02-26T02:44:30.000Z,69.42
2023-02-26T02:45:37.000Z,69.46
2023-02-26T02:46:30.000Z,69.46
2023-02-26T02:47:30.000Z,69.48
2023-02-26T02:48:38.000Z,69.40
2023-02-26T02:49:33.000Z,69.28
2023-02-26T02:50:34.000Z,69.20
2023-02-26T02:51:36.000Z,69.37
2023-02-26T02:52:36.000Z,69.11
2023-02-26T02:53:38.000Z,69.29
2023-02-26T02:54:36.000Z,69.31
2023-02-26T02:55:35.000Z,69.26
2023-02-26T02:56:37.000Z,69.33
2023-02-26T02:57:37.000Z,69.37
2023-02-26T02:58:34.000Z,69.69
2023-02-26T02:59:42.000Z,69.63
2023-02-26T03:00:31.000Z,69.34
2023-02-26T03:01:27.000Z,69.42
2023-02-26T03:02:34.000Z,69.52
2023-02-26T03:03:33.000Z,69.56
2023-02-26T03:04:26.000Z,69.70
2023-02-26T03:05:26.000Z,69.96
2023-02-26T03:06:26.000Z,69.98
2023-02-26T03:07:31.000Z,70.11
2023-02-26T03:08:29.000Z,70.46
2023-02-26T03:09:26.000Z,70.35
2023-02-26T03:10:26.000Z,70.37
2023-02-26T03:11:26.000Z,70.13
2023-02-26T03:12:30.000Z,70.55
2023-02-26T03:13:26.000Z,70.58
2023-02-26T03:14:27.000Z,71.14
2023-02-26T03:15:36.000Z,70.95
2023-02-26T03:16:49.000Z,70.84
2023-02-26T03:17:34.000Z,70.95
2023-02-26T03:18:59.000Z,70.80
2023-02-26T03:19:47.000Z,70.51
2023-02-26T03:20:32.000Z,70.39
2023-02-26T03:21:36.000Z,70.29
2023-02-26T03:22:38.000Z,70.20
2023-02-26T03:23:33.000Z,70.12
2023-02-26T03:24:36.000Z,70.17
2023-02-26T03:25:33.000Z,69.97
2023-02-26T03:26:38.000Z,69.84
2023-02-26T03:27:37.000Z,69.94
2023-02-26T03:28:36.000Z,69.88
2023-02-26T03:29:36.000Z,69.97
2023-02-26T03:30:34.000Z,70.16
2023-02-26T03:31:35.000Z,70.20
2023-02-26T03:32:49.000Z,70.10
2023-02-26T03:33:42.000Z,70.00
2023-02-26T03:34:40.000Z,69.84
2023-02-26T03:35:37.000Z,69.87
2023-02-26T03:36:36.000Z,69.96
2023-02-26T03:37:34.000Z,69.88
2023-02-26T03:38:37.000Z,69.91
2023-02-26T03:39:33.000Z,69.79
2023-02-26T03:40:32.000Z,70.03
2023-02-26T03:41:38.000Z,69.59
2023-02-26T03:42:38.000Z,69.77
2023-02-26T03:43:39.000Z,69.79
2023-02-26T03:44:35.000Z,69.98
2023-02-26T03:45:32.000Z,69.84
2023-02-26T03:46:32.000Z,69.83
2023-02-26T03:47:28.000Z,70.04
2023-02-26T03:48:28.000Z,70.10
2023-02-26T03:49:32.000Z,70.25
2023-02-26T03:50:37.000Z,70.64
2023-02-26T03:51:28.000Z,70.48
2023-02-26T03:52:30.000Z,71.06
2023-02-26T03:53:31.000Z,71.35
2023-02-26T03:54:37.000Z,71.56
2023-02-26T03:55:33.000Z,71.67
2023-02-26T03:56:34.000Z,71.73
2023-02-26T03:57:26.000Z,72.08
2023-02-26T03:58:26.000Z,72.02
2023-02-26T03:59:25.000Z,72.16
2023-02-26T04:00:29.000Z,72.12
2023-02-26T04:01:41.000Z,72.32
2023-02-26T04:02:36.000Z,72.56
2023-02-26T04:03:35.000Z,72.49
2023-02-26T04:04:35.000Z,72.73
2023-02-26T04:05:30.000Z,72.54
2023-02-26T04:06:27.000Z,72.74
2023-02-26T04:07:26.000Z,72.55
2023-02-26T04:08:27.000Z,72.86
2023-02-26T04:09:26.000Z,72.76
2023-02-26T04:10:36.000Z,72.93
2023-02-26T04:11:28.000Z,72.80
2023-02-26T04:12:26.000Z,72.93
2023-02-26T04:13:26.000Z,72.71
2023-02-26T04:14:25.000Z,72.70
2023-02-26T04:15:26.000Z,72.83
2023-02-26T04:16:26.000Z,72.72
2023-02-26T04:17:25.000Z,72.66
2023-02-26T04:18:25.000Z,72.54
2023-02-26T04:19:25.000Z,72.47
2023-02-26T04:20:25.000Z,72.45
2023-02-26T04:21:25.000Z,72.48
2023-02-26T04:22:25.000Z,72.45
2023-02-26T04:23:26.000Z,72.25
2023-02-26T04:24:25.000Z,72.23
2023-02-26T04:25:25.000Z,72.31
2023-02-26T04:26:25.000Z,72.39
2023-02-26T04:27:25.000Z,72.79
2023-02-26T04:28:25.000Z,73.04
2023-02-26T04:29:25.000Z,72.84
2023-02-26T04:30:25.000Z,72.92
2023-02-26T04:31:25.000Z,73.13
2023-02-26T04:32:25.000Z,73.16
2023-02-26T04:33:25.000Z,73.28
2023-02-26T04:34:26.000Z,73.52
2023-02-26T04:35:26.000Z,73.68
2023-02-26T04:36:25.000Z,73.75
2023-02-26T04:37:25.000Z,73.95
2023-02-26T04:38:26.000Z,73.90
2023-02-26T04:39:25.000Z,74.12
2023-02-26T04:40:25.000Z,74.18
2023-02-26T04:41:26.000Z,74.29
2023-02-26T04:42:25.000Z,74.33
2023-02-26T04:43:26.000Z,74.40
2023-02-26T04:44:25.000Z,74.54
2023-02-26T04:45:25.000Z,74.43
2023-02-26T04:46:26.000Z,74.51
2023-02-26T04:47:25.000Z,74.48
2023-02-26T04:48:25.000Z,74.57
2023-02-26T04:49:25.000Z,74.66
2023-02-26T04:50:25.000Z,74.59
2023-02-26T04:51:25.000Z,74.61
2023-02-26T04:52:25.000Z,74.69
2023-02-26T04:53:25.000Z,74.79
2023-02-26T04:54:25.000Z,74.73
2023-02-26T04:55:25.000Z,74.81
2023-02-26T04:56:26.000Z,74.95
2023-02-26T04:57:25.000Z,74.67
2023-02-26T04:58:26.000Z,74.67
2023-02-26T04:59:25.000Z,74.70
2023-02-26T05:00:25.000Z,74.88
2023-02-26T05:01:25.000Z,74.71
2023-02-26T05:02:25.000Z,74.71
2023-02-26T05:03:25.000Z,75.09
2023-02-26T05:04:25.000Z,75.13
2023-02-26T05:05:25.000Z,75.19
2023-02-26T05:06:25.000Z,75.34
2023-02-26T05:07:25.000Z,75.28
2023-02-26T05:08:25.000Z,75.53
2023-02-26T05:09:25.000Z,75.55
2023-02-26T05:10:25.000Z,75.35
2023-02-26T05:11:25.000Z,75.43
2023-02-26T05:12:25.000Z,75.39
2023-02-26T05:13:25.000Z,75.65
2023-02-26T05:14:25.000Z,75.74
2023-02-26T05:15:25.000Z,75.60
2023-02-26T05:16:25.000Z,75.54
2023-02-26T05:17:25.000Z,75.60
2023-02-26T05:18:25.000Z,75.69
2023-02-26T05:19:25.000Z,75.72
2023-02-26T05:20:25.000Z,75.75
2023-02-26T05:21:25.000Z,75.47
2023-02-26T05:22:25.000Z,75.66
2023-02-26T05:23:25.000Z,75.79
2023-02-26T05:24:25.000Z,75.64
2023-02-26T05:25:25.000Z,75.67
2023-02-26T05:26:25.000Z,75.58
2023-02-26T05:27:25.000Z,75.58
2023-02-26T05:28:26.000Z,75.82
2023-02-26T05:29:26.000Z,75.52
2023-02-26T05:30:26.000Z,75.64
2023-02-26T05:31:26.000Z,75.73
2023-02-26T05:32:26.000Z,75.74
2023-02-26T05:33:26.000Z,75.69
2023-02-26T05:34:26.000Z,75.76
2023-02-26T05:35:26.000Z,75.73
2023-02-26T05:36:26.000Z,75.87
2023-02-26T05:37:26.000Z,75.76
2023-02-26T05:38:26.000Z,75.44
2023-02-26T05:39:26.000Z,75.69
2023-02-26T05:40:26.000Z,75.64
2023-02-26T05:41:26.000Z,75.65
2023-02-26T05:42:26.000Z,75.47
2023-02-26T05:43:27.000Z,75.39
2023-02-26T05:44:26.000Z,75.55
2023-02-26T05:45:26.000Z,75.48
2023-02-26T05:46:26.000Z,75.55
2023-02-26T05:47:26.000Z,75.56
2023-02-26T05:48:26.000Z,75.79
2023-02-26T05:49:26.000Z,75.66
2023-02-26T05:50:26.000Z,75.58
2023-02-26T05:51:27.000Z,75.63
2023-02-26T05:52:26.000Z,75.83
2023-02-26T05:53:26.000Z,75.83
2023-02-26T05:54:26.000Z,75.69
2023-02-26T05:55:26.000Z,75.63
2023-02-26T05:56:26.000Z,75.68
2023-02-26T05:57:27.000Z,75.60
2023-02-26T05:58:26.000Z,75.34
2023-02-26T05:59:26.000Z,75.62
2023-02-26T06:00:26.000Z,75.43
2023-02-26T06:01:26.000Z,75.11
2023-02-26T06:02:26.000Z,74.94
2023-02-26T06:03:26.000Z,74.90
2023-02-26T06:04:25.000Z,74.95
2023-02-26T06:05:26.000Z,74.90
2023-02-26T06:06:26.000Z,74.86
2023-02-26T06:07:26.000Z,74.81
2023-02-26T06:08:26.000Z,74.71
2023-02-26T06:09:26.000Z,74.83
2023-02-26T06:10:26.000Z,74.78
2023-02-26T06:11:29.000Z,74.62
2023-02-26T06:12:26.000Z,74.48
2023-02-26T06:13:26.000Z,74.43
2023-02-26T06:14:26.000Z,74.53
2023-02-26T06:15:26.000Z,74.82
2023-02-26T06:16:26.000Z,74.75
2023-02-26T06:17:26.000Z,74.70
2023-02-26T06:18:26.000Z,74.89
2023-02-26T06:19:26.000Z,74.74
2023-02-26T06:20:26.000Z,74.55
2023-02-26T06:21:26.000Z,74.79
2023-02-26T06:22:26.000Z,74.62
2023-02-26T06:23:26.000Z,74.69
2023-02-26T06:24:26.000Z,74.65
2023-02-26T06:25:25.000Z,74.86
2023-02-26T06:26:26.000Z,75.12
2023-02-26T06:27:26.000Z,74.97
2023-02-26T06:28:26.000Z,74.90
2023-02-26T06:29:26.000Z,75.38
2023-02-26T06:30:26.000Z,75.00
2023-02-26T06:31:25.000Z,74.78
2023-02-26T06:32:26.000Z,75.91
2023-02-26T06:33:26.000Z,75.58
2023-02-26T06:34:26.000Z,74.88
2023-02-26T06:35:28.000Z,75.08
2023-02-26T06:36:26.000Z,75.11
2023-02-26T06:37:26.000Z,74.92
2023-02-26T06:38:26.000Z,74.70
2023-02-26T06:39:26.000Z,74.60
2023-02-26T06:40:26.000Z,74.69
2023-02-26T06:41:28.000Z,74.49
2023-02-26T06:42:26.000Z,74.77
2023-02-26T06:43:26.000Z,75.08
2023-02-26T06:44:26.000Z,74.98
2023-02-26T06:45:26.000Z,75.00
2023-02-26T06:46:26.000Z,74.71
2023-02-26T06:47:26.000Z,75.10
2023-02-26T06:48:26.000Z,75.29
2023-02-26T06:49:26.000Z,75.38
2023-02-26T06:50:26.000Z,75.50
2023-02-26T06:51:26.000Z,75.63
2023-02-26T06:52:26.000Z,75.77
2023-02-26T06:53:26.000Z,75.96
2023-02-26T06:54:26.000Z,76.04
2023-02-26T06:55:26.000Z,76.16
2023-02-26T06:56:26.000Z,76.56
2023-02-26T06:57:26.000Z,76.26
2023-02-26T06:58:26.000Z,76.24
2023-02-26T06:59:26.000Z,76.54
2023-02-26T07:00:25.000Z,76.42
2023-02-26T07:01:25.000Z,76.11
2023-02-26T07:02:26.000Z,76.25
2023-02-26T07:03:25.000Z,76.11
2023-02-26T07:04:25.000Z,75.95
2023-02-26T07:05:25.000Z,76.11
2023-02-26T07:06:25.000Z,75.95
2023-02-26T07:07:25.000Z,76.14
2023-02-26T07:08:25.000Z,75.86
2023-02-26T07:09:25.000Z,75.76
2023-02-26T07:10:25.000Z,75.52
2023-02-26T07:11:25.000Z,75.60
2023-02-26T07:12:25.000Z,75.52
2023-02-26T07:13:25.000Z,75.30
2023-02-26T07:14:25.000Z,75.26
2023-02-26T07:15:26.000Z,75.43
2023-02-26T07:16:25.000Z,75.25
2023-02-26T07:17:25.000Z,75.14
2023-02-26T07:18:25.000Z,74.52
2023-02-26T07:19:26.000Z,74.49
2023-02-26T07:20:26.000Z,74.71
2023-02-26T07:21:25.000Z,74.98
2023-02-26T07:22:25.000Z,73.93
2023-02-26T07:23:25.000Z,74.17
2023-02-26T07:24:25.000Z,73.94
2023-02-26T07:25:25.000Z,73.63
2023-02-26T07:26:25.000Z,73.08
2023-02-26T07:27:25.000Z,72.90
2023-02-26T07:28:26.000Z,72.78
2023-02-26T07:29:25.000Z,72.75
2023-02-26T07:30:25.000Z,72.87
2023-02-26T07:31:26.000Z,71.56
2023-02-26T07:32:26.000Z,72.00
2023-02-26T07:33:26.000Z,72.00
2023-02-26T07:34:26.000Z,71.55
2023-02-26T07:35:25.000Z,71.34
2023-02-26T07:36:25.000Z,71.33
2023-02-26T07:37:27.000Z,71.37
2023-02-26T07:38:25.000Z,71.00
2023-02-26T07:39:25.000Z,71.24
2023-02-26T07:40:25.000Z,71.02
2023-02-26T07:41:26.000Z,70.53
2023-02-26T07:42:25.000Z,70.85
2023-02-26T07:43:25.000Z,70.74
2023-02-26T07:44:25.000Z,70.85
2023-02-26T07:45:26.000Z,70.96
2023-02-26T07:46:25.000Z,71.04
2023-02-26T07:47:25.000Z,71.02
2023-02-26T07:48:25.000Z,71.30
2023-02-26T07:49:25.000Z,70.38
2023-02-26T07:50:26.000Z,70.43
2023-02-26T07:51:25.000Z,70.59
2023-02-26T07:52:27.000Z,70.73
2023-02-26T07:53:25.000Z,70.38
2023-02-26T07:54:25.000Z,71.01
2023-02-26T07:55:26.000Z,70.76
2023-02-26T07:56:25.000Z,70.79
2023-02-26T07:57:25.000Z,70.93
2023-02-26T07:58:25.000Z,70.69
2023-02-26T07:59:25.000Z,70.93
2023-02-26T08:00:25.000Z,70.77
2023-02-26T08:01:25.000Z,70.81
2023-02-26T08:02:26.000Z,70.86
2023-02-26T08:03:25.000Z,70.61
2023-02-26T08:04:26.000Z,70.77
2023-02-26T08:05:26.000Z,71.05
2023-02-26T08:06:26.000Z,70.83
2023-02-26T08:07:26.000Z,71.08
2023-02-26T08:08:26.000Z,70.97
2023-02-26T08:09:26.000Z,70.82
2023-02-26T08:10:26.000Z,70.71
2023-02-26T08:11:26.000Z,70.67
2023-02-26T08:12:26.000Z,70.68
2023-02-26T08:13:26.000Z,70.54
2023-02-26T08:14:25.000Z,70.44
2023-02-26T08:15:26.000Z,70.76
2023-02-26T08:16:26.000Z,70.57
2023-02-26T08:17:26.000Z,70.44
2023-02-26T08:18:26.000Z,70.28
2023-02-26T08:19:26.000Z,70.63
2023-02-26T08:20:26.000Z,70.16
2023-02-26T08:21:26.000Z,69.95
2023-02-26T08:22:26.000Z,69.94
2023-02-26T08:23:26.000Z,69.38
2023-02-26T08:24:26.000Z,69.54
2023-02-26T08:25:26.000Z,69.88
2023-02-26T08:26:26.000Z,69.93
2023-02-26T08:27:26.000Z,69.69
2023-02-26T08:28:26.000Z,69.63
2023-02-26T08:29:26.000Z,69.80
2023-02-26T08:30:27.000Z,69.04
2023-02-26T08:31:26.000Z,69.67
2023-02-26T08:32:26.000Z,70.13
2023-02-26T08:33:27.000Z,69.58
2023-02-26T08:34:26.000Z,69.38
2023-02-26T08:35:26.000Z,69.07
2023-02-26T08:36:26.000Z,69.01
2023-02-26T08:37:26.000Z,68.70
2023-02-26T08:38:27.000Z,68.56
2023-02-26T08:39:26.000Z,68.74
2023-02-26T08:40:26.000Z,68.77
2023-02-26T08:41:28.000Z,68.99
2023-02-26T08:42:26.000Z,69.25
2023-02-26T08:43:26.000Z,68.29
2023-02-26T08:44:26.000Z,68.13
2023-02-26T08:45:26.000Z,67.97
2023-02-26T08:46:26.000Z,68.32
2023-02-26T08:47:26.000Z,68.45
2023-02-26T08:48:26.000Z,68.31
2023-02-26T08:49:26.000Z,68.20
2023-02-26T08:50:26.000Z,67.61
2023-02-26T08:51:26.000Z,67.54
2023-02-26T08:52:26.000Z,68.00
2023-02-26T08:53:26.000Z,67.88
2023-02-26T08:54:26.000Z,67.80
2023-02-26T08:55:26.000Z,67.02
2023-02-26T08:56:26.000Z,66.93
2023-02-26T08:57:26.000Z,67.03
2023-02-26T08:58:26.000Z,67.21
2023-02-26T08:59:26.000Z,67.24
2023-02-26T09:00:26.000Z,65.99
2023-02-26T09:01:26.000Z,65.67
2023-02-26T09:02:26.000Z,65.34
2023-02-26T09:03:26.000Z,65.52
2023-02-26T09:04:27.000Z,65.45
2023-02-26T09:05:26.000Z,65.43
2023-02-26T09:06:26.000Z,65.76
2023-02-26T09:07:26.000Z,65.26
2023-02-26T09:08:26.000Z,63.98
2023-02-26T09:09:26.000Z,62.79
2023-02-26T09:10:26.000Z,62.79
2023-02-26T09:11:29.000Z,62.70
2023-02-26T09:12:26.000Z,62.63
2023-02-26T09:13:26.000Z,62.64
2023-02-26T09:14:26.000Z,62.88
2023-02-26T09:15:26.000Z,63.07
2023-02-26T09:16:26.000Z,63.20
2023-02-26T09:17:26.000Z,63.00
2023-02-26T09:18:26.000Z,62.13
2023-02-26T09:19:26.000Z,61.95
2023-02-26T09:20:27.000Z,61.76
2023-02-26T09:21:26.000Z,62.03
2023-02-26T09:22:26.000Z,61.38
2023-02-26T09:23:26.000Z,61.12
2023-02-26T09:24:26.000Z,61.50
2023-02-26T09:25:26.000Z,61.15
2023-02-26T09:26:26.000Z,61.35
2023-02-26T09:27:26.000Z,61.66
2023-02-26T09:28:26.000Z,61.82
2023-02-26T09:29:26.000Z,61.84
2023-02-26T09:30:26.000Z,61.36
2023-02-26T09:31:26.000Z,61.44
2023-02-26T09:32:26.000Z,61.33
2023-02-26T09:33:26.000Z,60.96
2023-02-26T09:34:26.000Z,61.17
2023-02-26T09:35:26.000Z,61.18
2023-02-26T09:36:26.000Z,60.74
2023-02-26T09:37:26.000Z,61.03
2023-02-26T09:38:26.000Z,60.81
2023-02-26T09:39:26.000Z,61.37
2023-02-26T09:40:41.000Z,61.25
2023-02-26T09:41:33.000Z,61.16
2023-02-26T09:42:39.000Z,60.76
2023-02-26T09:43:38.000Z,60.89
2023-02-26T09:44:41.000Z,61.06
2023-02-26T09:45:33.000Z,60.23
2023-02-26T09:46:36.000Z,60.14
2023-02-26T09:47:32.000Z,59.92
2023-02-26T09:48:28.000Z,60.17
2023-02-26T09:49:46.000Z,59.99
2023-02-26T09:50:40.000Z,60.06
2023-02-26T09:51:26.000Z,60.05
2023-02-26T09:52:34.000Z,60.21
2023-02-26T09:53:29.000Z,60.30
2023-02-26T09:54:30.000Z,59.32
2023-02-26T09:55:29.000Z,59.41
2023-02-26T09:56:35.000Z,59.54
2023-02-26T09:57:33.000Z,59.46
2023-02-26T09:58:29.000Z,58.64
2023-02-26T09:59:30.000Z,59.56
2023-02-26T10:00:36.000Z,59.38
2023-02-26T10:01:37.000Z,59.25
2023-02-26T10:02:39.000Z,59.43
2023-02-26T10:03:48.000Z,59.76
2023-02-26T10:04:48.000Z,59.30
2023-02-26T10:05:37.000Z,59.14
2023-02-26T10:06:33.000Z,58.71
2023-02-26T10:07:45.000Z,59.04
2023-02-26T10:08:35.000Z,59.15
2023-02-26T10:09:44.000Z,59.12
2023-02-26T10:10:45.000Z,58.59
2023-02-26T10:11:44.000Z,59.00
2023-02-26T10:12:31.000Z,58.86
2023-02-26T10:13:35.000Z,59.12
2023-02-26T10:14:33.000Z,59.10
2023-02-26T10:15:35.000Z,58.69
2023-02-26T10:16:29.000Z,58.74
2023-02-26T10:17:35.000Z,58.93
2023-02-26T10:18:33.000Z,59.04
2023-02-26T10:19:34.000Z,58.69
2023-02-26T10:20:34.000Z,58.73
2023-02-26T10:21:43.000Z,58.99
2023-02-26T10:22:34.000Z,59.11
2023-02-26T10:23:47.000Z,58.93
2023-02-26T10:24:38.000Z,59.05
2023-02-26T10:25:33.000Z,59.35
2023-02-26T10:26:35.000Z,59.29
2023-02-26T10:27:38.000Z,59.46
2023-02-26T10:28:36.000Z,59.61
2023-02-26T10:29:34.000Z,59.67
2023-02-26T10:30:35.000Z,59.76
2023-02-26T10:31:35.000Z,59.51
2023-02-26T10:32:35.000Z,59.59
2023-02-26T10:33:35.000Z,59.88
2023-02-26T10:34:36.000Z,59.87
2023-02-26T10:35:29.000Z,59.78
2023-02-26T10:36:39.000Z,59.66
2023-02-26T10:37:36.000Z,59.65
2023-02-26T10:38:29.000Z,60.00
2023-02-26T10:39:36.000Z,59.79
2023-02-26T10:40:36.000Z,59.11
2023-02-26T10:41:29.000Z,58.61
2023-02-26T10:42:35.000Z,59.24
2023-02-26T10:43:33.000Z,59.19
2023-02-26T10:44:36.000Z,58.89
2023-02-26T10:45:49.000Z,59.28
2023-02-26T10:46:37.000Z,59.50
2023-02-26T10:47:46.000Z,59.61
2023-02-26T10:48:51.000Z,59.20
2023-02-26T10:49:41.000Z,59.47
2023-02-26T10:50:27.000Z,59.60
2023-02-26T10:51:33.000Z,59.81
2023-02-26T10:52:27.000Z,60.12
2023-02-26T10:53:29.000Z,60.22
2023-02-26T10:54:31.000Z,60.19
2023-02-26T10:55:49.000Z,59.95
2023-02-26T10:56:32.000Z,59.64
2023-02-26T10:57:29.000Z,59.93
2023-02-26T10:58:25.000Z,59.74
2023-02-26T10:59:26.000Z,59.34
2023-02-26T11:00:25.000Z,59.51
2023-02-26T11:01:29.000Z,59.45
2023-02-26T11:02:36.000Z,59.64
2023-02-26T11:03:36.000Z,59.92
2023-02-26T11:04:26.000Z,59.80
2023-02-26T11:05:28.000Z,60.28
2023-02-26T11:06:30.000Z,59.91
2023-02-26T11:07:28.000Z,59.86
2023-02-26T11:08:30.000Z,59.78
2023-02-26T11:09:32.000Z,59.58
2023-02-26T11:10:49.000Z,59.54
2023-02-26T11:11:49.000Z,59.64
2023-02-26T11:12:26.000Z,59.31
2023-02-26T11:13:29.000Z,59.54
2023-02-26T11:14:25.000Z,59.66
2023-02-26T11:15:25.000Z,59.48
2023-02-26T11:16:27.000Z,59.89
2023-02-26T11:17:28.000Z,59.81
2023-02-26T11:18:31.000Z,59.99
2023-02-26T11:19:36.000Z,60.15
2023-02-26T11:20:45.000Z,60.32
2023-02-26T11:21:33.000Z,59.98
2023-02-26T11:22:29.000Z,59.54
2023-02-26T11:23:29.000Z,59.64
2023-02-26T11:24:39.000Z,59.38
2023-02-26T11:25:30.000Z,59.48
2023-02-26T11:26:30.000Z,59.51
2023-02-26T11:27:34.000Z,58.61
2023-02-26T11:28:33.000Z,58.20
2023-02-26T11:29:25.000Z,57.82
2023-02-26T11:30:30.000Z,57.66
2023-02-26T11:31:26.000Z,57.38
2023-02-26T11:32:32.000Z,57.67
2023-02-26T11:33:31.000Z,57.20
2023-02-26T11:34:28.000Z,56.74
2023-02-26T11:35:26.000Z,57.22
2023-02-26T11:36:29.000Z,56.99
2023-02-26T11:37:34.000Z,56.67
2023-02-26T11:38:27.000Z,56.90
2023-02-26T11:39:31.000Z,56.95
2023-02-26T11:40:45.000Z,56.82
2023-02-26T11:41:26.000Z,56.51
2023-02-26T11:42:26.000Z,56.35
2023-02-26T11:43:36.000Z,56.24
2023-02-26T11:44:37.000Z,56.16
2023-02-26T11:45:25.000Z,56.38
2023-02-26T11:46:26.000Z,56.26
2023-02-26T11:47:29.000Z,56.19
2023-02-26T11:48:35.000Z,56.34
2023-02-26T11:49:27.000Z,56.49
2023-02-26T11:50:28.000Z,56.17
2023-02-26T11:51:27.000Z,56.24
2023-02-26T11:52:34.000Z,56.40
2023-02-26T11:53:34.000Z,56.54
2023-02-26T11:54:27.000Z,56.94
2023-02-26T11:55:32.000Z,56.89
2023-02-26T11:56:33.000Z,56.81
2023-02-26T11:57:27.000Z,56.48
2023-02-26T11:58:29.000Z,55.85
2023-02-26T11:59:29.000Z,56.06
2023-02-26T12:00:31.000Z,56.18
2023-02-26T12:01:28.000Z,56.15
2023-02-26T12:02:32.000Z,56.05
2023-02-26T12:03:31.000Z,56.12
2023-02-26T12:04:25.000Z,56.33
2023-02-26T12:05:25.000Z,56.03
2023-02-26T12:06:25.000Z,55.85
2023-02-26T12:07:26.000Z,56.00
2023-02-26T12:08:32.000Z,55.71
2023-02-26T12:09:26.000Z,55.35
2023-02-26T12:10:39.000Z,55.43
2023-02-26T12:11:36.000Z,55.59
2023-02-26T12:12:45.000Z,55.53
2023-02-26T12:13:34.000Z,55.54
2023-02-26T12:14:36.000Z,55.40
2023-02-26T12:15:34.000Z,55.39
2023-02-26T12:16:35.000Z,55.20
2023-02-26T12:17:46.000Z,55.22
2023-02-26T12:18:46.000Z,55.33
2023-02-26T12:19:35.000Z,55.20
2023-02-26T12:20:36.000Z,55.17
2023-02-26T12:21:36.000Z,55.35
2023-02-26T12:22:40.000Z,55.34
2023-02-26T12:23:35.000Z,55.43
2023-02-26T12:24:36.000Z,55.32
2023-02-26T12:25:36.000Z,54.94
2023-02-26T12:26:32.000Z,54.85
2023-02-26T12:27:36.000Z,55.11
2023-02-26T12:28:36.000Z,55.23
2023-02-26T12:29:43.000Z,55.04
2023-02-26T12:30:36.000Z,54.82
2023-02-26T12:31:42.000Z,54.55
2023-02-26T12:32:46.000Z,54.82
2023-02-26T12:33:39.000Z,54.22
2023-02-26T12:34:49.000Z,53.95
2023-02-26T12:35:36.000Z,53.56
2023-02-26T12:36:59.000Z,53.33
2023-02-26T12:37:50.000Z,53.75
2023-02-26T12:38:39.000Z,53.93
2023-02-26T12:39:48.000Z,53.81
2023-02-26T12:40:39.000Z,53.82
2023-02-26T12:41:52.000Z,53.51
2023-02-26T12:42:39.000Z,53.65
2023-02-26T12:43:46.000Z,53.81
2023-02-26T12:44:46.000Z,53.26
2023-02-26T12:45:49.000Z,53.24
2023-02-26T12:46:36.000Z,52.72
2023-02-26T12:47:46.000Z,52.67
2023-02-26T12:48:41.000Z,52.48
2023-02-26T12:49:47.000Z,52.95
2023-02-26T12:50:41.000Z,53.22
2023-02-26T12:51:41.000Z,53.10
2023-02-26T12:52:49.000Z,52.99